sensor_id;sensor_type;location;lat;lon;timestamp;P1;durP1;ratioP1;P2;durP2;ratioP2
2213;SDS011;1113;42.018;23.986;2022-08-01T00:00:17;16.87;;;15.17;;
2213;SDS011;1113;42.018;23.986;2022-08-01T00:02:44;16.70;;;15.00;;
2213;SDS011;1113;42.018;23.986;2022-08-01T00:05:10;18.17;;;16.23;;
2213;SDS011;1113;42.018;23.986;2022-08-01T00:07:37;16.40;;;14.70;;
2213;SDS011;1113;42.018;23.986;2022-08-01T00:10:05;17.57;;;15.77;;
2213;SDS011;1113;42.018;23.986;2022-08-01T00:12:35;17.67;;;15.83;;
2213;SDS011;1113;42.018;23.986;2022-08-01T00:15:02;17.73;;;15.97;;
2213;SDS011;1113;42.018;23.986;2022-08-01T00:17:30;17.80;;;16.20;;
2213;SDS011;1113;42.018;23.986;2022-08-01T00:19:57;18.07;;;16.23;;
2213;SDS011;1113;42.018;23.986;2022-08-01T00:22:24;17.80;;;15.93;;
2213;SDS011;1113;42.018;23.986;2022-08-01T00:24:51;16.90;;;15.30;;
2213;SDS011;1113;42.018;23.986;2022-08-01T00:27:18;14.97;;;13.60;;
2213;SDS011;1113;42.018;23.986;2022-08-01T00:29:46;15.83;;;14.17;;
2213;SDS011;1113;42.018;23.986;2022-08-01T00:32:13;16.53;;;14.90;;
2213;SDS011;1113;42.018;23.986;2022-08-01T00:34:40;17.27;;;15.23;;
2213;SDS011;1113;42.018;23.986;2022-08-01T00:37:07;16.30;;;14.70;;
2213;SDS011;1113;42.018;23.986;2022-08-01T00:39:34;17.30;;;15.70;;
2213;SDS011;1113;42.018;23.986;2022-08-01T00:42:05;16.00;;;14.43;;
2213;SDS011;1113;42.018;23.986;2022-08-01T00:44:32;16.43;;;14.83;;
2213;SDS011;1113;42.018;23.986;2022-08-01T00:47:01;17.37;;;15.63;;
2213;SDS011;1113;42.018;23.986;2022-08-01T00:49:28;16.57;;;15.00;;
2213;SDS011;1113;42.018;23.986;2022-08-01T00:51:55;19.03;;;17.23;;
2213;SDS011;1113;42.018;23.986;2022-08-01T00:54:23;19.07;;;16.50;;
2213;SDS011;1113;42.018;23.986;2022-08-01T00:56:51;17.43;;;15.63;;
2213;SDS011;1113;42.018;23.986;2022-08-01T00:59:18;16.80;;;15.17;;
2213;SDS011;1113;42.018;23.986;2022-08-01T01:01:48;15.80;;;14.30;;
2213;SDS011;1113;42.018;23.986;2022-08-01T01:04:17;17.20;;;15.30;;
2213;SDS011;1113;42.018;23.986;2022-08-01T01:06:44;15.57;;;13.97;;
2213;SDS011;1113;42.018;23.986;2022-08-01T01:09:23;16.43;;;14.73;;
2213;SDS011;1113;42.018;23.986;2022-08-01T01:12:01;15.80;;;14.20;;
2213;SDS011;1113;42.018;23.986;2022-08-01T01:14:37;16.30;;;14.67;;
2213;SDS011;1113;42.018;23.986;2022-08-01T01:17:11;15.63;;;14.13;;
2213;SDS011;1113;42.018;23.986;2022-08-01T01:19:45;18.07;;;16.17;;
2213;SDS011;1113;42.018;23.986;2022-08-01T01:22:21;17.37;;;15.67;;
2213;SDS011;1113;42.018;23.986;2022-08-01T01:25:04;18.80;;;16.80;;
2213;SDS011;1113;42.018;23.986;2022-08-01T01:27:45;18.00;;;16.20;;
2213;SDS011;1113;42.018;23.986;2022-08-01T01:30:19;17.50;;;15.80;;
2213;SDS011;1113;42.018;23.986;2022-08-01T01:32:48;17.43;;;15.63;;
2213;SDS011;1113;42.018;23.986;2022-08-01T01:35:19;15.93;;;14.40;;
2213;SDS011;1113;42.018;23.986;2022-08-01T01:37:53;17.57;;;15.80;;
2213;SDS011;1113;42.018;23.986;2022-08-01T01:40:24;16.60;;;14.90;;
2213;SDS011;1113;42.018;23.986;2022-08-01T01:42:53;17.03;;;15.37;;
2213;SDS011;1113;42.018;23.986;2022-08-01T01:45:24;17.40;;;15.70;;
2213;SDS011;1113;42.018;23.986;2022-08-01T01:47:52;17.17;;;15.47;;
2213;SDS011;1113;42.018;23.986;2022-08-01T01:50:21;18.50;;;16.60;;
2213;SDS011;1113;42.018;23.986;2022-08-01T01:52:49;16.27;;;14.77;;
2213;SDS011;1113;42.018;23.986;2022-08-01T01:55:18;18.10;;;16.20;;
2213;SDS011;1113;42.018;23.986;2022-08-01T01:57:48;18.40;;;16.50;;
2213;SDS011;1113;42.018;23.986;2022-08-01T02:00:17;19.20;;;17.20;;
2213;SDS011;1113;42.018;23.986;2022-08-01T02:02:46;19.77;;;17.83;;
2213;SDS011;1113;42.018;23.986;2022-08-01T02:05:14;20.93;;;18.60;;
2213;SDS011;1113;42.018;23.986;2022-08-01T02:07:41;20.10;;;18.10;;
2213;SDS011;1113;42.018;23.986;2022-08-01T02:10:10;22.80;;;17.93;;
2213;SDS011;1113;42.018;23.986;2022-08-01T02:12:39;19.43;;;17.53;;
2213;SDS011;1113;42.018;23.986;2022-08-01T02:15:10;18.77;;;16.87;;
2213;SDS011;1113;42.018;23.986;2022-08-01T02:17:40;19.10;;;17.30;;
2213;SDS011;1113;42.018;23.986;2022-08-01T02:20:11;21.80;;;16.73;;
2213;SDS011;1113;42.018;23.986;2022-08-01T02:22:40;18.77;;;16.87;;
2213;SDS011;1113;42.018;23.986;2022-08-01T02:25:11;18.77;;;16.90;;
2213;SDS011;1113;42.018;23.986;2022-08-01T02:27:45;16.80;;;15.20;;
2213;SDS011;1113;42.018;23.986;2022-08-01T02:30:18;17.83;;;16.13;;
2213;SDS011;1113;42.018;23.986;2022-08-01T02:32:46;18.87;;;16.97;;
2213;SDS011;1113;42.018;23.986;2022-08-01T02:35:20;18.80;;;17.00;;
2213;SDS011;1113;42.018;23.986;2022-08-01T02:37:51;19.30;;;17.40;;
2213;SDS011;1113;42.018;23.986;2022-08-01T02:40:19;19.17;;;17.17;;
2213;SDS011;1113;42.018;23.986;2022-08-01T02:42:47;18.20;;;16.50;;
2213;SDS011;1113;42.018;23.986;2022-08-01T02:45:17;19.40;;;17.50;;
2213;SDS011;1113;42.018;23.986;2022-08-01T02:47:46;18.40;;;16.60;;
2213;SDS011;1113;42.018;23.986;2022-08-01T02:50:16;17.60;;;15.80;;
2213;SDS011;1113;42.018;23.986;2022-08-01T02:52:47;16.53;;;14.93;;
2213;SDS011;1113;42.018;23.986;2022-08-01T02:55:16;17.60;;;15.97;;
2213;SDS011;1113;42.018;23.986;2022-08-01T02:57:46;18.00;;;16.20;;
2213;SDS011;1113;42.018;23.986;2022-08-01T03:00:16;17.60;;;16.00;;
2213;SDS011;1113;42.018;23.986;2022-08-01T03:02:44;17.13;;;15.53;;
2213;SDS011;1113;42.018;23.986;2022-08-01T03:05:15;16.20;;;14.70;;
2213;SDS011;1113;42.018;23.986;2022-08-01T03:07:45;16.90;;;15.30;;
2213;SDS011;1113;42.018;23.986;2022-08-01T03:10:12;18.97;;;16.70;;
2213;SDS011;1113;42.018;23.986;2022-08-01T03:12:42;18.00;;;16.20;;
2213;SDS011;1113;42.018;23.986;2022-08-01T03:15:11;17.87;;;16.07;;
2213;SDS011;1113;42.018;23.986;2022-08-01T03:17:40;19.20;;;17.43;;
2213;SDS011;1113;42.018;23.986;2022-08-01T03:20:10;17.00;;;15.40;;
2213;SDS011;1113;42.018;23.986;2022-08-01T03:22:41;17.53;;;15.83;;
2213;SDS011;1113;42.018;23.986;2022-08-01T03:25:23;17.10;;;15.43;;
2213;SDS011;1113;42.018;23.986;2022-08-01T03:27:54;22.30;;;17.17;;
2213;SDS011;1113;42.018;23.986;2022-08-01T03:30:23;19.40;;;17.43;;
2213;SDS011;1113;42.018;23.986;2022-08-01T03:32:52;18.17;;;16.47;;
2213;SDS011;1113;42.018;23.986;2022-08-01T03:35:20;18.37;;;16.43;;
2213;SDS011;1113;42.018;23.986;2022-08-01T03:37:52;17.80;;;16.10;;
2213;SDS011;1113;42.018;23.986;2022-08-01T03:40:22;18.13;;;16.43;;
2213;SDS011;1113;42.018;23.986;2022-08-01T03:42:54;17.07;;;15.40;;
2213;SDS011;1113;42.018;23.986;2022-08-01T03:45:27;17.33;;;15.73;;
2213;SDS011;1113;42.018;23.986;2022-08-01T03:47:59;16.40;;;14.87;;
2213;SDS011;1113;42.018;23.986;2022-08-01T03:50:28;19.50;;;17.50;;
2213;SDS011;1113;42.018;23.986;2022-08-01T03:53:00;23.30;;;19.97;;
2213;SDS011;1113;42.018;23.986;2022-08-01T03:55:30;20.07;;;17.63;;
2213;SDS011;1113;42.018;23.986;2022-08-01T03:57:58;19.17;;;17.27;;
2213;SDS011;1113;42.018;23.986;2022-08-01T04:00:25;19.93;;;17.90;;
2213;SDS011;1113;42.018;23.986;2022-08-01T04:02:53;18.50;;;16.70;;
2213;SDS011;1113;42.018;23.986;2022-08-01T04:05:21;19.07;;;17.27;;
2213;SDS011;1113;42.018;23.986;2022-08-01T04:07:49;17.33;;;15.83;;
2213;SDS011;1113;42.018;23.986;2022-08-01T04:10:22;18.60;;;16.23;;
2213;SDS011;1113;42.018;23.986;2022-08-01T04:12:49;20.27;;;18.17;;
2213;SDS011;1113;42.018;23.986;2022-08-01T04:15:16;18.30;;;16.50;;
2213;SDS011;1113;42.018;23.986;2022-08-01T04:17:45;18.60;;;16.73;;
2213;SDS011;1113;42.018;23.986;2022-08-01T04:20:12;17.83;;;16.13;;
2213;SDS011;1113;42.018;23.986;2022-08-01T04:22:40;18.27;;;16.37;;
2213;SDS011;1113;42.018;23.986;2022-08-01T04:25:11;18.13;;;16.43;;
2213;SDS011;1113;42.018;23.986;2022-08-01T04:27:44;19.83;;;17.97;;
2213;SDS011;1113;42.018;23.986;2022-08-01T04:30:14;18.60;;;16.73;;
2213;SDS011;1113;42.018;23.986;2022-08-01T04:32:43;20.03;;;18.03;;
2213;SDS011;1113;42.018;23.986;2022-08-01T04:35:11;24.50;;;18.07;;
2213;SDS011;1113;42.018;23.986;2022-08-01T04:37:55;18.23;;;16.33;;
2213;SDS011;1113;42.018;23.986;2022-08-01T04:40:22;15.03;;;13.60;;
2213;SDS011;1113;42.018;23.986;2022-08-01T04:42:52;12.17;;;11.07;;
2213;SDS011;1113;42.018;23.986;2022-08-01T04:45:20;12.70;;;11.60;;
2213;SDS011;1113;42.018;23.986;2022-08-01T04:47:48;13.63;;;12.43;;
2213;SDS011;1113;42.018;23.986;2022-08-01T04:50:16;14.47;;;13.13;;
2213;SDS011;1113;42.018;23.986;2022-08-01T04:52:46;15.00;;;13.53;;
2213;SDS011;1113;42.018;23.986;2022-08-01T04:55:13;14.30;;;12.97;;
2213;SDS011;1113;42.018;23.986;2022-08-01T04:57:43;12.93;;;11.73;;
2213;SDS011;1113;42.018;23.986;2022-08-01T05:00:13;13.23;;;12.03;;
2213;SDS011;1113;42.018;23.986;2022-08-01T05:02:42;14.83;;;13.47;;
2213;SDS011;1113;42.018;23.986;2022-08-01T05:05:09;13.47;;;12.27;;
2213;SDS011;1113;42.018;23.986;2022-08-01T05:07:36;13.00;;;11.90;;
2213;SDS011;1113;42.018;23.986;2022-08-01T05:10:03;14.00;;;12.60;;
2213;SDS011;1113;42.018;23.986;2022-08-01T05:12:30;12.43;;;11.33;;
2213;SDS011;1113;42.018;23.986;2022-08-01T05:14:57;13.53;;;12.27;;
2213;SDS011;1113;42.018;23.986;2022-08-01T05:17:26;14.30;;;13.00;;
2213;SDS011;1113;42.018;23.986;2022-08-01T05:19:53;13.90;;;12.60;;
2213;SDS011;1113;42.018;23.986;2022-08-01T05:22:20;13.60;;;12.20;;
2213;SDS011;1113;42.018;23.986;2022-08-01T05:24:47;13.33;;;12.10;;
2213;SDS011;1113;42.018;23.986;2022-08-01T05:27:14;13.27;;;11.97;;
2213;SDS011;1113;42.018;23.986;2022-08-01T05:29:41;13.40;;;12.20;;
2213;SDS011;1113;42.018;23.986;2022-08-01T05:32:08;15.13;;;13.57;;
2213;SDS011;1113;42.018;23.986;2022-08-01T05:34:36;16.43;;;13.50;;
2213;SDS011;1113;42.018;23.986;2022-08-01T05:37:03;13.50;;;12.30;;
2213;SDS011;1113;42.018;23.986;2022-08-01T05:39:30;12.47;;;11.27;;
2213;SDS011;1113;42.018;23.986;2022-08-01T05:42:00;33.53;;;13.23;;
2213;SDS011;1113;42.018;23.986;2022-08-01T05:44:27;13.17;;;11.93;;
2213;SDS011;1113;42.018;23.986;2022-08-01T05:46:54;13.50;;;12.30;;
2213;SDS011;1113;42.018;23.986;2022-08-01T05:49:21;14.10;;;12.73;;
2213;SDS011;1113;42.018;23.986;2022-08-01T05:51:50;14.00;;;12.77;;
2213;SDS011;1113;42.018;23.986;2022-08-01T05:54:17;12.73;;;11.50;;
2213;SDS011;1113;42.018;23.986;2022-08-01T05:56:44;11.90;;;10.90;;
2213;SDS011;1113;42.018;23.986;2022-08-01T05:59:11;12.73;;;11.53;;
2213;SDS011;1113;42.018;23.986;2022-08-01T06:01:38;13.57;;;12.40;;
2213;SDS011;1113;42.018;23.986;2022-08-01T06:04:05;13.57;;;12.47;;
2213;SDS011;1113;42.018;23.986;2022-08-01T06:06:32;11.50;;;10.60;;
2213;SDS011;1113;42.018;23.986;2022-08-01T06:09:00;13.60;;;11.20;;
2213;SDS011;1113;42.018;23.986;2022-08-01T06:11:27;12.40;;;11.30;;
2213;SDS011;1113;42.018;23.986;2022-08-01T06:13:53;11.80;;;10.70;;
2213;SDS011;1113;42.018;23.986;2022-08-01T06:16:20;12.53;;;11.40;;
2213;SDS011;1113;42.018;23.986;2022-08-01T06:18:47;10.40;;;9.50;;
2213;SDS011;1113;42.018;23.986;2022-08-01T06:21:14;13.03;;;11.80;;
2213;SDS011;1113;42.018;23.986;2022-08-01T06:23:41;14.60;;;13.10;;
2213;SDS011;1113;42.018;23.986;2022-08-01T06:26:09;10.40;;;9.43;;
2213;SDS011;1113;42.018;23.986;2022-08-01T06:28:36;10.00;;;9.10;;
2213;SDS011;1113;42.018;23.986;2022-08-01T06:31:03;9.97;;;9.03;;
2213;SDS011;1113;42.018;23.986;2022-08-01T06:33:31;10.07;;;9.17;;
2213;SDS011;1113;42.018;23.986;2022-08-01T06:35:57;10.27;;;9.37;;
2213;SDS011;1113;42.018;23.986;2022-08-01T06:38:24;10.20;;;9.10;;
2213;SDS011;1113;42.018;23.986;2022-08-01T06:40:51;10.43;;;9.43;;
2213;SDS011;1113;42.018;23.986;2022-08-01T06:43:19;10.80;;;9.90;;
2213;SDS011;1113;42.018;23.986;2022-08-01T06:45:46;8.33;;;7.57;;
2213;SDS011;1113;42.018;23.986;2022-08-01T06:48:13;9.90;;;9.00;;
2213;SDS011;1113;42.018;23.986;2022-08-01T06:50:41;9.50;;;8.63;;
2213;SDS011;1113;42.018;23.986;2022-08-01T06:53:08;8.63;;;7.83;;
2213;SDS011;1113;42.018;23.986;2022-08-01T06:55:34;9.47;;;8.63;;
2213;SDS011;1113;42.018;23.986;2022-08-01T06:58:01;11.90;;;10.60;;
2213;SDS011;1113;42.018;23.986;2022-08-01T07:00:30;10.40;;;9.33;;
2213;SDS011;1113;42.018;23.986;2022-08-01T07:02:58;10.10;;;9.10;;
2213;SDS011;1113;42.018;23.986;2022-08-01T07:05:25;8.90;;;8.10;;
2213;SDS011;1113;42.018;23.986;2022-08-01T07:07:53;7.53;;;6.83;;
2213;SDS011;1113;42.018;23.986;2022-08-01T07:10:20;8.07;;;7.30;;
2213;SDS011;1113;42.018;23.986;2022-08-01T07:12:47;7.70;;;6.33;;
2213;SDS011;1113;42.018;23.986;2022-08-01T07:15:14;6.30;;;5.70;;
2213;SDS011;1113;42.018;23.986;2022-08-01T07:17:42;6.27;;;5.77;;
2213;SDS011;1113;42.018;23.986;2022-08-01T07:20:09;5.53;;;5.03;;
2213;SDS011;1113;42.018;23.986;2022-08-01T07:22:38;7.20;;;4.53;;
2213;SDS011;1113;42.018;23.986;2022-08-01T07:25:05;4.67;;;4.27;;
2213;SDS011;1113;42.018;23.986;2022-08-01T07:27:33;5.33;;;4.83;;
2213;SDS011;1113;42.018;23.986;2022-08-01T07:30:00;5.33;;;4.83;;
2213;SDS011;1113;42.018;23.986;2022-08-01T07:32:27;6.07;;;5.43;;
2213;SDS011;1113;42.018;23.986;2022-08-01T07:34:56;12.57;;;5.80;;
2213;SDS011;1113;42.018;23.986;2022-08-01T07:37:23;5.23;;;4.70;;
2213;SDS011;1113;42.018;23.986;2022-08-01T07:39:50;4.90;;;4.50;;
2213;SDS011;1113;42.018;23.986;2022-08-01T07:42:17;4.90;;;4.50;;
2213;SDS011;1113;42.018;23.986;2022-08-01T07:44:44;5.07;;;4.23;;
2213;SDS011;1113;42.018;23.986;2022-08-01T07:47:11;5.17;;;4.30;;
2213;SDS011;1113;42.018;23.986;2022-08-01T07:49:38;4.70;;;4.03;;
2213;SDS011;1113;42.018;23.986;2022-08-01T07:52:06;9.00;;;4.60;;
2213;SDS011;1113;42.018;23.986;2022-08-01T07:54:34;4.83;;;4.43;;
2213;SDS011;1113;42.018;23.986;2022-08-01T07:57:01;4.07;;;3.67;;
2213;SDS011;1113;42.018;23.986;2022-08-01T07:59:28;5.33;;;3.97;;
2213;SDS011;1113;42.018;23.986;2022-08-01T08:01:55;3.90;;;3.60;;
2213;SDS011;1113;42.018;23.986;2022-08-01T08:04:22;4.47;;;4.07;;
2213;SDS011;1113;42.018;23.986;2022-08-01T08:06:49;4.63;;;4.23;;
2213;SDS011;1113;42.018;23.986;2022-08-01T08:09:18;3.80;;;3.47;;
2213;SDS011;1113;42.018;23.986;2022-08-01T08:11:46;4.87;;;4.47;;
2213;SDS011;1113;42.018;23.986;2022-08-01T08:14:12;5.93;;;5.33;;
2213;SDS011;1113;42.018;23.986;2022-08-01T08:16:40;4.40;;;4.10;;
2213;SDS011;1113;42.018;23.986;2022-08-01T08:19:06;5.27;;;3.93;;
2213;SDS011;1113;42.018;23.986;2022-08-01T08:21:33;4.40;;;4.00;;
2213;SDS011;1113;42.018;23.986;2022-08-01T08:24:01;6.86;;;3.74;;
2213;SDS011;1113;42.018;23.986;2022-08-01T08:30:09;3.73;;;3.00;;
2213;SDS011;1113;42.018;23.986;2022-08-01T08:32:37;4.60;;;3.40;;
2213;SDS011;1113;42.018;23.986;2022-08-01T08:35:04;3.63;;;2.90;;
2213;SDS011;1113;42.018;23.986;2022-08-01T08:37:33;3.57;;;3.10;;
2213;SDS011;1113;42.018;23.986;2022-08-01T08:40:00;3.40;;;3.10;;
2213;SDS011;1113;42.018;23.986;2022-08-01T08:42:27;6.73;;;5.67;;
2213;SDS011;1113;42.018;23.986;2022-08-01T08:44:54;3.57;;;3.27;;
2213;SDS011;1113;42.018;23.986;2022-08-01T08:47:23;4.17;;;3.53;;
2213;SDS011;1113;42.018;23.986;2022-08-01T08:49:52;3.00;;;2.80;;
2213;SDS011;1113;42.018;23.986;2022-08-01T08:52:22;16.27;;;6.50;;
2213;SDS011;1113;42.018;23.986;2022-08-01T08:54:49;4.73;;;3.40;;
2213;SDS011;1113;42.018;23.986;2022-08-01T08:57:18;3.37;;;3.07;;
2213;SDS011;1113;42.018;23.986;2022-08-01T08:59:46;9.77;;;4.93;;
2213;SDS011;1113;42.018;23.986;2022-08-01T09:02:14;5.47;;;4.20;;
2213;SDS011;1113;42.018;23.986;2022-08-01T09:04:42;6.77;;;3.73;;
2213;SDS011;1113;42.018;23.986;2022-08-01T09:07:09;3.57;;;3.27;;
2213;SDS011;1113;42.018;23.986;2022-08-01T09:09:36;4.53;;;3.50;;
2213;SDS011;1113;42.018;23.986;2022-08-01T09:12:04;5.37;;;3.57;;
2213;SDS011;1113;42.018;23.986;2022-08-01T09:14:31;5.07;;;3.30;;
2213;SDS011;1113;42.018;23.986;2022-08-01T09:17:00;3.17;;;2.87;;
2213;SDS011;1113;42.018;23.986;2022-08-01T09:19:34;3.53;;;3.23;;
2213;SDS011;1113;42.018;23.986;2022-08-01T09:22:04;3.20;;;2.90;;
2213;SDS011;1113;42.018;23.986;2022-08-01T09:27:24;4.77;;;3.43;;
2213;SDS011;1113;42.018;23.986;2022-08-01T09:29:51;4.10;;;3.43;;
2213;SDS011;1113;42.018;23.986;2022-08-01T09:32:19;4.00;;;3.53;;
2213;SDS011;1113;42.018;23.986;2022-08-01T09:34:46;3.23;;;2.90;;
2213;SDS011;1113;42.018;23.986;2022-08-01T09:37:15;3.93;;;3.63;;
2213;SDS011;1113;42.018;23.986;2022-08-01T09:39:43;6.87;;;3.77;;
2213;SDS011;1113;42.018;23.986;2022-08-01T09:42:20;3.67;;;3.10;;
2213;SDS011;1113;42.018;23.986;2022-08-01T09:44:49;3.97;;;3.67;;
2213;SDS011;1113;42.018;23.986;2022-08-01T09:47:17;5.73;;;3.83;;
2213;SDS011;1113;42.018;23.986;2022-08-01T09:49:45;5.23;;;4.00;;
2213;SDS011;1113;42.018;23.986;2022-08-01T09:52:22;4.77;;;4.37;;
2213;SDS011;1113;42.018;23.986;2022-08-01T09:54:52;4.30;;;3.90;;
2213;SDS011;1113;42.018;23.986;2022-08-01T09:57:19;3.53;;;3.10;;
2213;SDS011;1113;42.018;23.986;2022-08-01T09:59:47;3.77;;;3.17;;
2213;SDS011;1113;42.018;23.986;2022-08-01T10:02:26;3.57;;;3.27;;
2213;SDS011;1113;42.018;23.986;2022-08-01T10:04:54;3.73;;;3.27;;
2213;SDS011;1113;42.018;23.986;2022-08-01T10:07:24;4.07;;;3.67;;
2213;SDS011;1113;42.018;23.986;2022-08-01T10:09:51;3.60;;;3.30;;
2213;SDS011;1113;42.018;23.986;2022-08-01T10:12:18;3.63;;;3.33;;
2213;SDS011;1113;42.018;23.986;2022-08-01T10:14:47;3.70;;;2.90;;
2213;SDS011;1113;42.018;23.986;2022-08-01T10:17:15;3.33;;;3.03;;
2213;SDS011;1113;42.018;23.986;2022-08-01T10:19:43;4.23;;;3.20;;
2213;SDS011;1113;42.018;23.986;2022-08-01T10:22:11;3.87;;;3.27;;
2213;SDS011;1113;42.018;23.986;2022-08-01T10:24:43;3.40;;;3.07;;
2213;SDS011;1113;42.018;23.986;2022-08-01T10:27:13;3.50;;;3.20;;
2213;SDS011;1113;42.018;23.986;2022-08-01T10:29:42;3.40;;;3.10;;
2213;SDS011;1113;42.018;23.986;2022-08-01T10:32:12;5.80;;;3.90;;
2213;SDS011;1113;42.018;23.986;2022-08-01T10:34:39;4.20;;;3.13;;
2213;SDS011;1113;42.018;23.986;2022-08-01T10:37:06;3.77;;;3.30;;
2213;SDS011;1113;42.018;23.986;2022-08-01T10:39:33;3.90;;;3.60;;
2213;SDS011;1113;42.018;23.986;2022-08-01T10:42:02;4.17;;;3.63;;
2213;SDS011;1113;42.018;23.986;2022-08-01T10:44:30;6.00;;;3.20;;
2213;SDS011;1113;42.018;23.986;2022-08-01T10:47:00;3.90;;;3.20;;
2213;SDS011;1113;42.018;23.986;2022-08-01T10:49:30;3.97;;;3.40;;
2213;SDS011;1113;42.018;23.986;2022-08-01T10:52:01;5.60;;;3.30;;
2213;SDS011;1113;42.018;23.986;2022-08-01T10:54:28;5.10;;;3.50;;
2213;SDS011;1113;42.018;23.986;2022-08-01T10:57:07;3.73;;;3.43;;
2213;SDS011;1113;42.018;23.986;2022-08-01T10:59:36;3.23;;;2.93;;
2213;SDS011;1113;42.018;23.986;2022-08-01T11:02:25;3.90;;;3.47;;
2213;SDS011;1113;42.018;23.986;2022-08-01T11:05:22;3.60;;;3.30;;
2213;SDS011;1113;42.018;23.986;2022-08-01T11:07:52;3.97;;;3.53;;
2213;SDS011;1113;42.018;23.986;2022-08-01T11:10:22;3.80;;;3.50;;
2213;SDS011;1113;42.018;23.986;2022-08-01T11:12:53;6.50;;;3.77;;
2213;SDS011;1113;42.018;23.986;2022-08-01T11:15:20;4.37;;;3.97;;
2213;SDS011;1113;42.018;23.986;2022-08-01T11:17:52;3.60;;;3.30;;
2213;SDS011;1113;42.018;23.986;2022-08-01T11:20:20;3.67;;;3.37;;
2213;SDS011;1113;42.018;23.986;2022-08-01T11:31:40;3.97;;;3.57;;
2213;SDS011;1113;42.018;23.986;2022-08-01T11:34:07;4.20;;;3.70;;
2213;SDS011;1113;42.018;23.986;2022-08-01T11:36:34;6.57;;;3.50;;
2213;SDS011;1113;42.018;23.986;2022-08-01T11:39:11;3.13;;;2.83;;
2213;SDS011;1113;42.018;23.986;2022-08-01T11:41:43;4.50;;;3.73;;
2213;SDS011;1113;42.018;23.986;2022-08-01T11:44:13;4.00;;;3.70;;
2213;SDS011;1113;42.018;23.986;2022-08-01T11:46:45;3.80;;;3.40;;
2213;SDS011;1113;42.018;23.986;2022-08-01T11:49:22;3.83;;;3.50;;
2213;SDS011;1113;42.018;23.986;2022-08-01T11:51:57;4.23;;;3.90;;
2213;SDS011;1113;42.018;23.986;2022-08-01T11:54:29;5.70;;;3.27;;
2213;SDS011;1113;42.018;23.986;2022-08-01T11:56:57;6.20;;;4.33;;
2213;SDS011;1113;42.018;23.986;2022-08-01T11:59:27;4.53;;;3.40;;
2213;SDS011;1113;42.018;23.986;2022-08-01T12:01:54;4.23;;;3.83;;
2213;SDS011;1113;42.018;23.986;2022-08-01T12:04:21;3.90;;;3.60;;
2213;SDS011;1113;42.018;23.986;2022-08-01T12:06:48;3.50;;;3.20;;
2213;SDS011;1113;42.018;23.986;2022-08-01T12:09:15;3.37;;;3.07;;
2213;SDS011;1113;42.018;23.986;2022-08-01T12:11:47;3.43;;;3.17;;
2213;SDS011;1113;42.018;23.986;2022-08-01T12:14:15;3.97;;;3.60;;
2213;SDS011;1113;42.018;23.986;2022-08-01T12:16:53;4.40;;;4.00;;
2213;SDS011;1113;42.018;23.986;2022-08-01T12:19:21;5.73;;;3.60;;
2213;SDS011;1113;42.018;23.986;2022-08-01T12:22:05;4.13;;;3.80;;
2213;SDS011;1113;42.018;23.986;2022-08-01T12:24:33;4.00;;;3.70;;
2213;SDS011;1113;42.018;23.986;2022-08-01T12:27:00;3.70;;;3.40;;
2213;SDS011;1113;42.018;23.986;2022-08-01T12:29:34;4.00;;;3.70;;
2213;SDS011;1113;42.018;23.986;2022-08-01T12:32:19;10.53;;;3.90;;
2213;SDS011;1113;42.018;23.986;2022-08-01T12:34:47;5.47;;;3.57;;
2213;SDS011;1113;42.018;23.986;2022-08-01T12:37:15;3.50;;;3.20;;
2213;SDS011;1113;42.018;23.986;2022-08-01T12:39:43;3.60;;;3.30;;
2213;SDS011;1113;42.018;23.986;2022-08-01T12:42:11;4.27;;;3.87;;
2213;SDS011;1113;42.018;23.986;2022-08-01T12:44:38;3.73;;;3.33;;
2213;SDS011;1113;42.018;23.986;2022-08-01T12:47:09;4.03;;;3.53;;
2213;SDS011;1113;42.018;23.986;2022-08-01T12:49:37;8.60;;;3.60;;
2213;SDS011;1113;42.018;23.986;2022-08-01T12:52:04;3.77;;;3.47;;
2213;SDS011;1113;42.018;23.986;2022-08-01T12:57:26;5.47;;;3.73;;
2213;SDS011;1113;42.018;23.986;2022-08-01T12:59:53;4.90;;;2.97;;
2213;SDS011;1113;42.018;23.986;2022-08-01T13:02:32;6.03;;;3.57;;
2213;SDS011;1113;42.018;23.986;2022-08-01T13:05:00;3.67;;;3.37;;
2213;SDS011;1113;42.018;23.986;2022-08-01T13:07:34;12.27;;;3.50;;
2213;SDS011;1113;42.018;23.986;2022-08-01T13:10:02;3.60;;;3.33;;
2213;SDS011;1113;42.018;23.986;2022-08-01T13:12:30;3.90;;;3.30;;
2213;SDS011;1113;42.018;23.986;2022-08-01T13:14:57;6.17;;;3.17;;
2213;SDS011;1113;42.018;23.986;2022-08-01T13:17:34;5.10;;;3.47;;
2213;SDS011;1113;42.018;23.986;2022-08-01T13:20:04;3.50;;;3.17;;
2213;SDS011;1113;42.018;23.986;2022-08-01T13:22:32;3.90;;;3.23;;
2213;SDS011;1113;42.018;23.986;2022-08-01T13:25:09;4.60;;;3.03;;
2213;SDS011;1113;42.018;23.986;2022-08-01T13:27:36;3.93;;;3.50;;
2213;SDS011;1113;42.018;23.986;2022-08-01T13:30:10;7.63;;;3.33;;
2213;SDS011;1113;42.018;23.986;2022-08-01T13:32:40;15.57;;;3.50;;
2213;SDS011;1113;42.018;23.986;2022-08-01T13:35:09;6.00;;;3.30;;
2213;SDS011;1113;42.018;23.986;2022-08-01T13:37:38;5.70;;;3.30;;
2213;SDS011;1113;42.018;23.986;2022-08-01T13:40:05;3.20;;;3.00;;
2213;SDS011;1113;42.018;23.986;2022-08-01T13:42:34;6.10;;;3.60;;
2213;SDS011;1113;42.018;23.986;2022-08-01T13:45:01;3.47;;;3.00;;
2213;SDS011;1113;42.018;23.986;2022-08-01T13:47:29;4.33;;;3.70;;
2213;SDS011;1113;42.018;23.986;2022-08-01T13:49:57;6.67;;;3.27;;
2213;SDS011;1113;42.018;23.986;2022-08-01T13:52:27;6.47;;;3.33;;
2213;SDS011;1113;42.018;23.986;2022-08-01T13:54:54;5.30;;;4.80;;
2213;SDS011;1113;42.018;23.986;2022-08-01T13:57:21;4.27;;;3.97;;
2213;SDS011;1113;42.018;23.986;2022-08-01T13:59:47;3.97;;;3.33;;
2213;SDS011;1113;42.018;23.986;2022-08-01T14:02:14;4.10;;;3.00;;
2213;SDS011;1113;42.018;23.986;2022-08-01T14:04:41;3.60;;;3.30;;
2213;SDS011;1113;42.018;23.986;2022-08-01T14:07:10;3.50;;;3.20;;
2213;SDS011;1113;42.018;23.986;2022-08-01T14:09:37;5.73;;;3.30;;
2213;SDS011;1113;42.018;23.986;2022-08-01T14:12:04;4.87;;;3.40;;
2213;SDS011;1113;42.018;23.986;2022-08-01T14:14:31;4.47;;;3.30;;
2213;SDS011;1113;42.018;23.986;2022-08-01T14:16:58;3.27;;;2.93;;
2213;SDS011;1113;42.018;23.986;2022-08-01T14:19:25;3.93;;;3.53;;
2213;SDS011;1113;42.018;23.986;2022-08-01T14:21:52;4.37;;;4.03;;
2213;SDS011;1113;42.018;23.986;2022-08-01T14:24:20;3.90;;;3.53;;
2213;SDS011;1113;42.018;23.986;2022-08-01T14:26:47;8.57;;;4.00;;
2213;SDS011;1113;42.018;23.986;2022-08-01T14:29:14;4.60;;;4.00;;
2213;SDS011;1113;42.018;23.986;2022-08-01T14:31:41;4.03;;;3.67;;
2213;SDS011;1113;42.018;23.986;2022-08-01T14:34:08;6.30;;;3.90;;
2213;SDS011;1113;42.018;23.986;2022-08-01T14:36:34;4.90;;;4.03;;
2213;SDS011;1113;42.018;23.986;2022-08-01T14:39:02;4.93;;;3.57;;
2213;SDS011;1113;42.018;23.986;2022-08-01T14:41:30;6.63;;;3.80;;
2213;SDS011;1113;42.018;23.986;2022-08-01T14:43:57;4.33;;;4.03;;
2213;SDS011;1113;42.018;23.986;2022-08-01T14:46:24;4.17;;;3.77;;
2213;SDS011;1113;42.018;23.986;2022-08-01T14:48:51;5.07;;;3.83;;
2213;SDS011;1113;42.018;23.986;2022-08-01T14:51:18;14.03;;;4.80;;
2213;SDS011;1113;42.018;23.986;2022-08-01T14:53:54;4.30;;;3.53;;
2213;SDS011;1113;42.018;23.986;2022-08-01T14:56:21;4.00;;;3.70;;
2213;SDS011;1113;42.018;23.986;2022-08-01T14:58:49;4.63;;;4.20;;
2213;SDS011;1113;42.018;23.986;2022-08-01T15:01:16;4.23;;;3.87;;
2213;SDS011;1113;42.018;23.986;2022-08-01T15:03:43;3.70;;;3.40;;
2213;SDS011;1113;42.018;23.986;2022-08-01T15:06:11;4.00;;;3.70;;
2213;SDS011;1113;42.018;23.986;2022-08-01T15:08:38;3.57;;;3.27;;
2213;SDS011;1113;42.018;23.986;2022-08-01T15:11:05;21.30;;;4.63;;
2213;SDS011;1113;42.018;23.986;2022-08-01T15:13:33;3.67;;;3.30;;
2213;SDS011;1113;42.018;23.986;2022-08-01T15:16:01;13.23;;;4.17;;